createdAt,value
2023-05-08T00:02:09.754Z,13.24
2023-05-08T00:04:40.304Z,13.21
2023-05-08T00:07:10.489Z,13.18
2023-05-08T00:09:43.027Z,13.12
2023-05-08T00:12:11.131Z,13.10
2023-05-08T00:14:39.465Z,13.06
2023-05-08T00:17:09.074Z,13.12
2023-05-08T00:19:38.768Z,13.12
2023-05-08T00:22:07.698Z,13.06
2023-05-08T00:24:49.388Z,13.09
2023-05-08T00:27:18.619Z,13.03
2023-05-08T00:29:50.779Z,12.96
2023-05-08T00:32:20.694Z,12.95
2023-05-08T00:34:50.755Z,12.98
2023-05-08T00:37:18.582Z,12.76
2023-05-08T00:39:48.829Z,12.82
2023-05-08T00:42:18.339Z,12.84
2023-05-08T00:44:47.965Z,12.86
2023-05-08T00:47:15.941Z,12.80
2023-05-08T00:49:46.403Z,12.78
2023-05-08T00:52:16.927Z,12.71
2023-05-08T00:54:49.728Z,12.76
2023-05-08T00:57:19.996Z,12.73
2023-05-08T00:59:52.795Z,12.57
2023-05-08T01:02:23.231Z,12.59
2023-05-08T01:04:55.711Z,12.76
2023-05-08T01:07:28.412Z,12.77
2023-05-08T01:09:58.111Z,12.77
2023-05-08T01:12:37.570Z,12.84
2023-05-08T01:15:17.225Z,12.80
2023-05-08T01:18:10.710Z,12.82
2023-05-08T01:20:47.839Z,12.77
2023-05-08T01:24:01.352Z,12.61
2023-05-08T01:27:09.785Z,12.66
2023-05-08T01:30:13.916Z,12.57
2023-05-08T01:32:48.243Z,12.65
2023-05-08T01:35:23.056Z,12.63
2023-05-08T01:38:00.484Z,12.72
2023-05-08T01:40:42.016Z,12.80
2023-05-08T01:43:20.134Z,12.76
2023-05-08T01:45:51.181Z,12.73
2023-05-08T01:48:28.313Z,12.71
2023-05-08T01:51:05.942Z,12.80
2023-05-08T01:53:39.301Z,12.62
2023-05-08T01:56:16.781Z,12.50
2023-05-08T01:58:53.811Z,12.52
2023-05-08T02:01:26.079Z,12.62
2023-05-08T02:03:56.948Z,12.71
2023-05-08T02:06:29.030Z,12.57
2023-05-08T02:09:01.414Z,12.42
2023-05-08T02:11:32.456Z,12.24
2023-05-08T02:14:02.075Z,12.32
2023-05-08T02:16:40.636Z,12.30
2023-05-08T02:19:12.887Z,12.30
2023-05-08T02:21:44.892Z,12.01
2023-05-08T02:24:16.146Z,12.17
2023-05-08T02:26:47.235Z,12.26
2023-05-08T02:29:16.909Z,11.97
2023-05-08T02:31:49.162Z,11.96
2023-05-08T02:34:22.765Z,11.94
2023-05-08T02:36:54.228Z,11.89
2023-05-08T02:39:29.212Z,11.95
2023-05-08T02:41:58.881Z,11.95
2023-05-08T02:44:28.184Z,11.92
2023-05-08T02:47:07.191Z,12.06
2023-05-08T02:50:00.886Z,11.96
2023-05-08T02:52:32.001Z,12.08
2023-05-08T02:55:05.149Z,11.95
2023-05-08T02:57:41.374Z,12.00
2023-05-08T03:00:31.349Z,12.00
2023-05-08T03:03:18.986Z,11.71
2023-05-08T03:05:55.995Z,11.72
2023-05-08T03:08:29.769Z,11.79
2023-05-08T03:11:03.046Z,11.73
2023-05-08T03:13:34.642Z,11.83
2023-05-08T03:16:05.498Z,11.60
2023-05-08T03:18:52.161Z,11.84
2023-05-08T03:21:26.235Z,11.70
2023-05-08T03:24:00.939Z,11.72
2023-05-08T03:26:32.386Z,11.88
2023-05-08T03:29:03.351Z,11.57
2023-05-08T03:31:37.580Z,11.64
2023-05-08T03:34:16.962Z,11.58
2023-05-08T03:36:55.931Z,11.51
2023-05-08T03:39:27.035Z,11.64
2023-05-08T03:41:57.054Z,11.59
2023-05-08T03:44:26.233Z,11.54
2023-05-08T03:46:59.555Z,11.61
2023-05-08T03:49:31.996Z,11.32
2023-05-08T03:52:02.951Z,11.36
2023-05-08T03:54:31.985Z,11.28
2023-05-08T03:57:04.333Z,11.22
2023-05-08T03:59:44.822Z,11.24
2023-05-08T04:02:24.922Z,11.06
2023-05-08T04:05:02.776Z,10.98
2023-05-08T04:07:38.292Z,11.11
2023-05-08T04:10:15.432Z,10.88
2023-05-08T04:12:53.459Z,11.05
2023-05-08T04:15:30.967Z,10.88
2023-05-08T04:18:11.317Z,10.86
2023-05-08T04:20:44.501Z,11.10
2023-05-08T04:23:20.033Z,11.16
2023-05-08T04:25:51.682Z,10.99
2023-05-08T04:28:22.005Z,11.06
2023-05-08T04:30:52.080Z,11.20
2023-05-08T04:33:26.253Z,11.31
2023-05-08T04:35:55.366Z,11.20
2023-05-08T04:38:25.625Z,11.22
2023-05-08T04:40:53.997Z,11.14
2023-05-08T04:43:23.292Z,11.18
2023-05-08T04:45:53.666Z,11.25
2023-05-08T04:48:22.726Z,11.36
2023-05-08T04:50:50.838Z,11.45
2023-05-08T04:53:20.288Z,11.29
2023-05-08T04:55:51.087Z,11.37
2023-05-08T04:58:23.293Z,11.41
2023-05-08T05:00:54.411Z,11.34
2023-05-08T05:03:24.418Z,11.38
2023-05-08T05:06:00.192Z,11.31
2023-05-08T05:08:32.029Z,11.43
2023-05-08T05:11:03.468Z,11.50
2023-05-08T05:13:40.466Z,11.30
2023-05-08T05:16:13.561Z,11.40
2023-05-08T05:18:49.815Z,11.68
2023-05-08T05:21:28.513Z,11.72
2023-05-08T05:24:03.617Z,11.68
2023-05-08T05:26:39.784Z,11.73
2023-05-08T05:29:09.450Z,11.43
2023-05-08T05:31:40.757Z,11.56
2023-05-08T05:34:10.961Z,11.45
2023-05-08T05:36:39.617Z,11.29
2023-05-08T05:39:10.990Z,11.53
2023-05-08T05:41:46.462Z,11.63
2023-05-08T05:44:19.922Z,11.75
2023-05-08T05:46:48.102Z,11.58
2023-05-08T05:49:22.031Z,11.74
2023-05-08T05:51:51.160Z,12.05
2023-05-08T05:54:19.988Z,11.63
2023-05-08T05:56:58.020Z,11.71
2023-05-08T05:59:27.625Z,11.96
2023-05-08T06:01:55.366Z,12.10
2023-05-08T06:04:23.153Z,12.21
2023-05-08T06:06:52.108Z,12.20
2023-05-08T06:09:21.470Z,12.06
2023-05-08T06:11:55.591Z,11.94
2023-05-08T06:14:23.469Z,11.89
2023-05-08T06:16:54.160Z,11.92
2023-05-08T06:19:26.954Z,11.87
2023-05-08T06:21:58.360Z,11.61
2023-05-08T06:24:28.060Z,12.01
2023-05-08T06:27:00.027Z,12.38
2023-05-08T06:29:32.290Z,12.07
2023-05-08T06:32:03.322Z,12.25
2023-05-08T06:34:33.794Z,12.29
2023-05-08T06:37:01.720Z,12.33
2023-05-08T06:39:30.325Z,12.52
2023-05-08T06:42:03.503Z,12.37
2023-05-08T06:44:32.419Z,12.49
2023-05-08T06:47:00.438Z,12.87
2023-05-08T06:49:31.111Z,12.71
2023-05-08T06:51:59.772Z,13.21
2023-05-08T06:54:27.507Z,13.21
2023-05-08T06:56:56.766Z,13.59
2023-05-08T06:59:32.488Z,14.59
2023-05-08T07:02:04.945Z,14.17
2023-05-08T07:04:36.825Z,14.55
2023-05-08T07:07:06.943Z,14.65
2023-05-08T07:09:40.626Z,15.23
2023-05-08T07:12:14.152Z,16.74
2023-05-08T07:14:46.355Z,17.48
2023-05-08T07:17:16.915Z,16.74
2023-05-08T07:19:44.631Z,16.19
2023-05-08T07:22:12.712Z,17.32
2023-05-08T07:24:40.517Z,16.67
2023-05-08T07:27:08.416Z,15.54
2023-05-08T07:29:36.784Z,16.59
2023-05-08T07:32:08.344Z,16.80
2023-05-08T07:34:36.224Z,16.54
2023-05-08T07:37:04.287Z,17.43
2023-05-08T07:39:32.257Z,17.91
2023-05-08T07:42:00.276Z,16.41
2023-05-08T07:44:28.397Z,16.20
2023-05-08T07:46:56.145Z,16.36
2023-05-08T07:49:25.380Z,17.26
2023-05-08T07:51:53.211Z,16.78
2023-05-08T07:54:20.941Z,16.81
2023-05-08T07:56:49.023Z,16.31
2023-05-08T07:59:16.758Z,15.80
2023-05-08T08:01:47.377Z,16.19
2023-05-08T08:04:15.619Z,17.15
2023-05-08T08:06:44.900Z,16.46
2023-05-08T08:09:12.645Z,16.46
2023-05-08T08:11:40.910Z,16.38
2023-05-08T08:14:08.606Z,16.56
2023-05-08T08:16:36.542Z,16.72
2023-05-08T08:19:04.753Z,16.68
2023-05-08T08:21:32.905Z,16.58
2023-05-08T08:24:02.065Z,16.02
2023-05-08T08:26:29.689Z,15.90
2023-05-08T08:28:57.368Z,15.73
2023-05-08T08:31:25.149Z,15.68
2023-05-08T08:33:53.080Z,16.53
2023-05-08T08:36:21.464Z,15.96
2023-05-08T08:38:49.576Z,16.31
2023-05-08T08:41:18.871Z,16.44
2023-05-08T08:43:46.754Z,16.66
2023-05-08T08:46:15.662Z,16.99
2023-05-08T08:48:46.630Z,17.53
2023-05-08T08:51:28.968Z,16.74
2023-05-08T08:54:06.126Z,16.94
2023-05-08T08:56:38.081Z,17.05
2023-05-08T08:59:07.065Z,17.29
2023-05-08T09:01:36.990Z,16.80
2023-05-08T09:04:05.447Z,16.68
2023-05-08T09:06:37.315Z,16.39
2023-05-08T09:09:06.054Z,15.94
2023-05-08T09:11:37.276Z,16.12
2023-05-08T09:14:05.122Z,16.24
2023-05-08T09:16:33.233Z,16.04
2023-05-08T09:19:01.767Z,15.93
2023-05-08T09:21:30.659Z,16.52
2023-05-08T09:23:59.937Z,16.89
2023-05-08T09:26:33.565Z,16.65
2023-05-08T09:29:13.590Z,16.68
2023-05-08T09:31:43.221Z,16.99
2023-05-08T09:34:12.561Z,16.91
2023-05-08T09:36:42.102Z,16.48
2023-05-08T09:39:12.959Z,16.45
2023-05-08T09:41:41.256Z,16.92
2023-05-08T09:44:08.959Z,16.69
2023-05-08T09:46:38.046Z,16.94
2023-05-08T09:49:05.789Z,16.89
2023-05-08T09:51:33.927Z,16.55
2023-05-08T09:54:05.763Z,16.85
2023-05-08T09:56:36.139Z,17.14
2023-05-08T09:59:06.706Z,16.69
2023-05-08T10:01:36.779Z,17.14
2023-05-08T10:04:06.672Z,17.14
2023-05-08T10:06:36.405Z,16.99
2023-05-08T10:09:12.154Z,17.11
2023-05-08T10:11:40.991Z,17.19
2023-05-08T10:14:09.445Z,17.74
2023-05-08T10:16:41.699Z,17.69
2023-05-08T10:19:15.043Z,17.66
2023-05-08T10:21:46.774Z,17.53
2023-05-08T10:24:17.919Z,17.87
2023-05-08T10:27:05.718Z,18.44
2023-05-08T10:29:42.556Z,17.98
2023-05-08T10:32:11.710Z,18.34
2023-05-08T10:34:42.569Z,18.51
2023-05-08T10:37:11.308Z,18.29
2023-05-08T10:39:41.273Z,18.46
2023-05-08T10:42:09.379Z,18.69
2023-05-08T10:44:37.920Z,18.64
2023-05-08T10:47:12.764Z,18.96
2023-05-08T10:49:52.781Z,18.79
2023-05-08T10:52:26.125Z,19.63
2023-05-08T10:55:24.136Z,19.72
2023-05-08T10:58:06.898Z,18.82
2023-05-08T11:01:13.825Z,19.14
2023-05-08T11:03:43.976Z,19.01
2023-05-08T11:06:14.325Z,18.96
2023-05-08T11:08:47.924Z,19.37
2023-05-08T11:11:24.940Z,19.44
2023-05-08T11:13:56.569Z,19.38
2023-05-08T11:17:01.739Z,19.42
2023-05-08T11:19:30.266Z,19.24
2023-05-08T11:22:29.114Z,19.76
2023-05-08T11:24:59.488Z,19.85
2023-05-08T11:28:13.920Z,19.02
2023-05-08T11:30:41.657Z,18.96
2023-05-08T11:33:33.168Z,18.00
2023-05-08T11:36:02.351Z,18.38
2023-05-08T11:38:34.255Z,18.51
2023-05-08T11:41:04.611Z,18.92
2023-05-08T11:44:09.565Z,18.36
2023-05-08T11:46:41.571Z,18.77
2023-05-08T11:49:14.387Z,18.49
2023-05-08T11:51:45.017Z,18.50
2023-05-08T11:54:17.563Z,18.68
2023-05-08T11:56:47.962Z,18.94
2023-05-08T11:59:17.919Z,18.85
2023-05-08T12:01:50.851Z,18.88
2023-05-08T12:04:28.204Z,18.40
2023-05-08T12:06:59.400Z,18.36
2023-05-08T12:09:27.703Z,18.30
2023-05-08T12:11:58.761Z,18.36
2023-05-08T12:14:27.933Z,18.18
2023-05-08T12:16:55.888Z,18.37
2023-05-08T12:19:23.657Z,18.64
2023-05-08T12:21:51.514Z,18.65
2023-05-08T12:24:23.165Z,18.47
2023-05-08T12:26:55.491Z,18.81
2023-05-08T12:29:24.190Z,18.97
2023-05-08T12:31:54.430Z,19.09
2023-05-08T12:34:23.038Z,18.64
2023-05-08T12:37:02.188Z,18.61
2023-05-08T12:39:29.906Z,18.50
2023-05-08T12:42:00.196Z,18.97
2023-05-08T12:44:31.694Z,18.85
2023-05-08T12:47:01.496Z,18.94
2023-05-08T12:49:30.992Z,18.97
2023-05-08T12:52:03.855Z,19.34
2023-05-08T12:54:36.267Z,19.36
2023-05-08T12:57:10.605Z,19.05
2023-05-08T12:59:38.628Z,19.16
2023-05-08T13:02:14.092Z,19.20
2023-05-08T13:04:42.487Z,19.52
2023-05-08T13:07:10.716Z,19.61
2023-05-08T13:09:38.478Z,19.17
2023-05-08T13:12:07.565Z,19.22
2023-05-08T13:14:35.331Z,19.15
2023-05-08T13:17:03.098Z,19.30
2023-05-08T13:19:32.287Z,19.12
2023-05-08T13:22:00.292Z,19.05
2023-05-08T13:24:28.017Z,19.03
2023-05-08T13:26:55.868Z,18.67
2023-05-08T13:29:24.255Z,19.02
2023-05-08T13:31:52.087Z,19.09
2023-05-08T13:34:19.857Z,19.05
2023-05-08T13:36:48.943Z,18.82
2023-05-08T13:39:16.680Z,18.74
2023-05-08T13:41:44.644Z,19.21
2023-05-08T13:44:12.765Z,19.35
2023-05-08T13:46:40.422Z,19.70
2023-05-08T13:49:08.083Z,19.69
2023-05-08T13:51:35.814Z,19.31
2023-05-08T13:54:05.017Z,19.14
2023-05-08T13:56:32.738Z,19.29
2023-05-08T13:59:00.518Z,19.15
2023-05-08T14:01:28.712Z,19.07
2023-05-08T14:03:56.684Z,19.26
2023-05-08T14:06:24.653Z,18.94
2023-05-08T14:11:41.462Z,18.83
2023-05-08T14:12:42.961Z,18.94
2023-05-08T14:14:09.286Z,18.79
2023-05-08T14:16:37.665Z,19.03
2023-05-08T14:19:05.395Z,18.94
2023-05-08T14:21:34.540Z,19.00
2023-05-08T14:24:02.312Z,19.11
2023-05-08T14:26:30.033Z,19.35
2023-05-08T14:28:59.098Z,19.01
2023-05-08T14:31:26.918Z,18.70
2023-05-08T14:33:55.004Z,18.75
2023-05-08T14:36:22.990Z,18.72
2023-05-08T14:38:51.224Z,18.65
2023-05-08T14:41:19.273Z,18.60
2023-05-08T14:43:47.309Z,18.55
2023-05-08T14:46:16.466Z,18.76
2023-05-08T14:48:44.558Z,18.82
2023-05-08T14:51:14.006Z,18.95
2023-05-08T14:53:42.196Z,19.13
2023-05-08T14:56:10.414Z,18.91
2023-05-08T14:58:38.360Z,18.91
2023-05-08T15:01:06.491Z,18.67
2023-05-08T15:03:35.810Z,18.62
2023-05-08T15:06:04.843Z,18.85
2023-05-08T15:08:32.648Z,18.84
2023-05-08T15:11:00.388Z,18.86
2023-05-08T15:13:28.270Z,18.57
2023-05-08T15:15:56.021Z,18.70
2023-05-08T15:18:25.466Z,18.71
2023-05-08T15:20:54.665Z,18.64
2023-05-08T15:23:22.447Z,18.76
2023-05-08T15:25:50.672Z,18.63
2023-05-08T15:28:19.741Z,18.67
2023-05-08T15:30:47.849Z,18.61
2023-05-08T15:33:15.843Z,18.81
2023-05-08T15:35:43.576Z,18.85
2023-05-08T15:38:12.788Z,18.54
2023-05-08T15:40:40.548Z,18.73
2023-05-08T15:43:08.331Z,18.59
2023-05-08T15:45:36.766Z,18.36
2023-05-08T15:48:04.772Z,18.33
2023-05-08T15:50:32.819Z,18.16
2023-05-08T15:53:00.670Z,18.37
2023-05-08T15:55:29.785Z,18.36
2023-05-08T15:57:57.766Z,18.35
2023-05-08T16:00:30.155Z,18.31
2023-05-08T16:03:05.304Z,18.30
2023-05-08T16:05:33.375Z,18.34
2023-05-08T16:08:01.606Z,18.29
2023-05-08T16:10:30.727Z,18.20
2023-05-08T16:13:00.595Z,17.86
2023-05-08T16:15:28.679Z,17.84
2023-05-08T16:17:56.698Z,18.05
2023-05-08T16:20:25.168Z,18.05
2023-05-08T16:22:55.149Z,18.02
2023-05-08T16:25:23.231Z,17.89
2023-05-08T16:27:53.108Z,17.81
2023-05-08T16:30:21.057Z,17.90
2023-05-08T16:32:49.118Z,17.88
2023-05-08T16:35:18.248Z,17.99
2023-05-08T16:37:46.505Z,17.81
2023-05-08T16:40:16.793Z,17.87
2023-05-08T16:42:44.913Z,17.59
2023-05-08T16:45:14.708Z,17.43
2023-05-08T16:47:42.739Z,17.33
2023-05-08T16:50:11.462Z,17.21
2023-05-08T16:52:39.181Z,17.31
2023-05-08T16:55:08.057Z,17.25
2023-05-08T16:57:35.919Z,17.21
2023-05-08T17:00:04.191Z,17.11
2023-05-08T17:02:33.388Z,17.21
2023-05-08T17:05:01.757Z,17.20
2023-05-08T17:07:29.473Z,17.13
2023-05-08T17:09:58.069Z,17.21
2023-05-08T17:12:28.345Z,17.26
2023-05-08T17:14:56.970Z,17.25
2023-05-08T17:17:25.748Z,17.06
2023-05-08T17:19:54.812Z,17.00
2023-05-08T17:22:23.025Z,17.12
2023-05-08T17:24:50.989Z,17.09
2023-05-08T17:27:20.110Z,16.94
2023-05-08T17:29:48.110Z,16.97
2023-05-08T17:32:16.016Z,16.96
2023-05-08T17:34:44.203Z,16.92
2023-05-08T17:37:13.721Z,16.94
2023-05-08T17:39:42.063Z,16.90
2023-05-08T17:42:10.898Z,16.87
2023-05-08T17:44:38.810Z,16.83
2023-05-08T17:47:06.601Z,16.83
2023-05-08T17:49:34.358Z,16.75
2023-05-08T17:52:03.364Z,16.79
2023-05-08T17:54:32.667Z,16.80
2023-05-08T17:57:00.781Z,16.83
2023-05-08T17:59:28.994Z,16.76
2023-05-08T18:01:56.965Z,16.72
2023-05-08T18:04:26.246Z,16.73
2023-05-08T18:06:56.402Z,16.78
2023-05-08T18:09:24.503Z,16.78
2023-05-08T18:11:55.848Z,16.84
2023-05-08T18:14:24.305Z,16.88
2023-05-08T18:16:52.078Z,16.74
2023-05-08T18:19:19.801Z,16.69
2023-05-08T18:21:47.873Z,16.58
2023-05-08T18:24:15.937Z,16.56
2023-05-08T18:26:47.028Z,16.53
2023-05-08T18:29:19.352Z,16.62
2023-05-08T18:31:47.331Z,16.55
2023-05-08T18:34:16.394Z,16.49
2023-05-08T18:36:44.307Z,16.61
2023-05-08T18:39:12.142Z,16.60
2023-05-08T18:41:39.905Z,16.56
2023-05-08T18:44:09.305Z,16.48
2023-05-08T18:46:38.502Z,16.45
2023-05-08T18:49:06.756Z,16.44
2023-05-08T18:51:34.514Z,16.29
2023-05-08T18:54:04.880Z,16.28
2023-05-08T18:56:37.197Z,16.28
2023-05-08T18:59:05.058Z,16.27
2023-05-08T19:01:33.867Z,16.30
2023-05-08T19:04:04.161Z,16.32
2023-05-08T19:06:33.168Z,16.34
2023-05-08T19:09:01.155Z,16.41
2023-05-08T19:11:29.094Z,16.34
2023-05-08T19:13:56.834Z,16.32
2023-05-08T19:16:25.038Z,16.34
2023-05-08T19:18:52.852Z,16.19
2023-05-08T19:21:21.907Z,16.23
2023-05-08T19:23:49.808Z,16.17
2023-05-08T19:26:20.088Z,16.23
2023-05-08T19:28:48.030Z,16.26
2023-05-08T19:31:15.831Z,16.21
2023-05-08T19:33:43.623Z,16.04
2023-05-08T19:36:11.615Z,16.14
2023-05-08T19:38:40.701Z,16.06
2023-05-08T19:41:08.846Z,16.05
2023-05-08T19:43:37.212Z,16.07
2023-05-08T19:46:06.551Z,16.08
2023-05-08T19:48:36.892Z,15.97
2023-05-08T19:51:16.310Z,15.94
2023-05-08T19:53:48.622Z,15.88
2023-05-08T19:56:16.894Z,15.90
2023-05-08T19:58:49.654Z,15.93
2023-05-08T20:01:20.902Z,15.99
2023-05-08T20:03:49.432Z,15.83
2023-05-08T20:06:17.531Z,15.90
2023-05-08T20:08:47.252Z,15.87
2023-05-08T20:11:17.741Z,15.81
2023-05-08T20:13:46.150Z,15.87
2023-05-08T20:16:14.156Z,15.84
2023-05-08T20:18:41.845Z,15.83
2023-05-08T20:21:12.102Z,15.81
2023-05-08T20:23:41.219Z,15.85
2023-05-08T20:26:10.858Z,15.75
2023-05-08T20:28:40.923Z,15.79
2023-05-08T20:31:08.905Z,15.75
2023-05-08T20:33:36.782Z,15.74
2023-05-08T20:36:05.112Z,15.73
2023-05-08T20:38:33.658Z,15.75
2023-05-08T20:41:01.597Z,15.73
2023-05-08T20:43:32.110Z,15.73
2023-05-08T20:46:01.482Z,15.69
2023-05-08T20:48:29.221Z,15.73
2023-05-08T20:51:00.534Z,15.66
2023-05-08T20:53:28.743Z,15.59
2023-05-08T20:56:01.568Z,15.60
2023-05-08T20:58:32.610Z,15.45
2023-05-08T21:01:02.690Z,15.48
2023-05-08T21:03:31.100Z,15.51
2023-05-08T21:06:06.482Z,15.50
2023-05-08T21:08:35.491Z,15.59
2023-05-08T21:11:08.877Z,15.51
2023-05-08T21:13:46.006Z,15.41
2023-05-08T21:16:14.217Z,15.48
2023-05-08T21:18:45.049Z,15.42
2023-05-08T21:21:17.355Z,15.40
2023-05-08T21:23:45.432Z,15.35
2023-05-08T21:26:13.603Z,15.34
2023-05-08T21:28:47.758Z,15.29
2023-05-08T21:31:16.688Z,15.38
2023-05-08T21:33:47.866Z,15.26
2023-05-08T21:36:19.231Z,15.38
2023-05-08T21:38:47.326Z,15.31
2023-05-08T21:41:17.320Z,15.22
2023-05-08T21:43:47.933Z,15.19
2023-05-08T21:46:21.173Z,15.30
2023-05-08T21:48:49.311Z,15.18
2023-05-08T21:51:19.821Z,15.18
2023-05-08T21:53:49.842Z,15.17
2023-05-08T21:56:20.082Z,15.22
2023-05-08T21:58:51.611Z,15.15
2023-05-08T22:01:19.831Z,15.20
2023-05-08T22:03:49.523Z,15.22
2023-05-08T22:06:17.913Z,15.14
2023-05-08T22:08:47.567Z,15.11
2023-05-08T22:11:15.282Z,14.95
2023-05-08T22:13:50.361Z,14.77
2023-05-08T22:16:20.321Z,14.72
2023-05-08T22:18:49.240Z,14.42
2023-05-08T22:21:17.383Z,14.51
2023-05-08T22:23:46.025Z,14.43
2023-05-08T22:26:16.467Z,14.42
2023-05-08T22:28:45.623Z,14.39
2023-05-08T22:31:14.929Z,14.33
2023-05-08T22:33:46.787Z,14.32
2023-05-08T22:36:14.875Z,14.38
2023-05-08T22:38:45.246Z,14.39
2023-05-08T22:41:17.001Z,14.33
2023-05-08T22:43:52.096Z,14.32
2023-05-08T22:46:21.422Z,14.25
2023-05-08T22:48:55.697Z,14.32
2023-05-08T22:51:24.273Z,14.33
2023-05-08T22:53:56.669Z,14.33
2023-05-08T22:56:25.718Z,14.26
2023-05-08T22:58:57.531Z,14.25
2023-05-08T23:01:25.453Z,14.26
2023-05-08T23:03:59.874Z,14.29
2023-05-08T23:06:29.681Z,14.36
2023-05-08T23:09:12.562Z,14.26
2023-05-08T23:11:42.469Z,14.32
2023-05-08T23:14:12.846Z,14.27
2023-05-08T23:16:40.623Z,14.13
2023-05-08T23:19:17.017Z,14.21
2023-05-08T23:21:49.635Z,14.09
2023-05-08T23:24:19.917Z,14.12
2023-05-08T23:26:52.782Z,14.21
2023-05-08T23:29:23.319Z,14.26
2023-05-08T23:31:55.048Z,14.24
2023-05-08T23:34:31.892Z,14.28
2023-05-08T23:37:03.211Z,14.28
2023-05-08T23:39:34.800Z,14.21
2023-05-08T23:42:06.646Z,14.26
2023-05-08T23:44:36.152Z,14.31
2023-05-08T23:47:07.379Z,14.33
2023-05-08T23:49:39.128Z,14.25
2023-05-08T23:52:09.534Z,14.32
2023-05-08T23:54:39.431Z,14.26
2023-05-08T23:57:09.425Z,14.09
2023-05-08T23:59:37.586Z,14.09
